Terminal Aerodrome Forecast
Issued by NWS

Home | Current Version | Previous Version | Text Only | Print | Product List | Glossary On
Versions: 1 2 3 4 5 6 7 8 9 10 11 12 13 14 15 16 17 18
447
FTUS43 KILX 062034 AAB
TAFCMI
TAF AMD
KCMI 062034Z 0621/0718 31013G20KT P6SM BKN015
     FM062200 29013KT P6SM SCT060
     FM070400 27009KT P6SM SCT250
     FM071100 27006KT P6SM BKN110=

USA.gov is the U.S. government's official web portal to all federal, state and local government web resources and services.